createdAt,value
2018-04-18T00:00:12.848Z,97085.91
2018-04-18T00:02:41.149Z,97086.80
2018-04-18T00:05:09.480Z,97091.14
2018-04-18T00:07:38.107Z,97090.64
2018-04-18T00:10:06.425Z,97086.41
2018-04-18T00:12:34.813Z,97089.63
2018-04-18T00:15:03.122Z,97085.96
2018-04-18T00:17:31.504Z,97086.27
2018-04-18T00:19:59.878Z,97089.16
2018-04-18T00:22:28.228Z,97088.13
2018-04-18T00:24:56.572Z,97089.17
2018-04-18T00:27:24.914Z,97087.67
2018-04-18T00:29:53.257Z,97096.27
2018-04-18T00:32:21.568Z,97090.88
2018-04-18T00:34:49.985Z,97090.88
2018-04-18T00:37:18.281Z,97102.10
2018-04-18T00:39:46.644Z,97098.08
2018-04-18T00:42:14.982Z,97097.06
2018-04-18T00:44:43.294Z,97094.38
2018-04-18T00:47:11.733Z,97098.27
2018-04-18T00:49:40.049Z,97099.25
2018-04-18T00:52:08.397Z,97098.30
2018-04-18T00:54:36.701Z,97099.20
2018-04-18T00:57:05.054Z,97097.92
2018-04-18T00:59:33.421Z,97101.52
2018-04-18T01:02:01.815Z,97098.24
2018-04-18T01:04:30.182Z,97101.09
2018-04-18T01:06:58.599Z,97103.42
2018-04-18T01:09:26.945Z,97099.31
2018-04-18T01:11:55.291Z,97102.72
2018-04-18T01:14:23.596Z,97104.13
2018-04-18T01:16:51.946Z,97098.16
2018-04-18T01:19:20.264Z,97104.54
2018-04-18T01:21:48.611Z,97103.13
2018-04-18T01:24:16.907Z,97102.68
2018-04-18T01:26:45.251Z,97106.14
2018-04-18T01:29:13.660Z,97102.13
2018-04-18T01:31:41.997Z,97103.19
2018-04-18T01:34:10.505Z,97105.09
2018-04-18T01:36:38.934Z,97103.02
2018-04-18T01:39:07.241Z,97109.11
2018-04-18T01:41:35.649Z,97111.52
2018-04-18T01:44:03.964Z,97112.42
2018-04-18T01:46:32.311Z,97111.63
2018-04-18T01:49:12.435Z,97116.69
2018-04-18T01:51:40.781Z,97113.58
2018-04-18T01:54:09.118Z,97118.50
2018-04-18T01:56:37.462Z,97115.28
2018-04-18T01:59:05.770Z,97118.92
2018-04-18T02:01:34.106Z,97120.58
2018-04-18T02:04:02.422Z,97114.78
2018-04-18T02:06:30.809Z,97117.74
2018-04-18T02:08:59.105Z,97124.73
2018-04-18T02:11:27.421Z,97119.77
2018-04-18T02:13:55.828Z,97131.31
2018-04-18T02:16:24.137Z,97123.98
2018-04-18T02:18:52.482Z,97129.73
2018-04-18T02:21:20.784Z,97126.66
2018-04-18T02:23:49.125Z,97126.86
2018-04-18T02:26:17.509Z,97129.58
2018-04-18T02:28:45.839Z,97134.83
2018-04-18T02:31:14.137Z,97136.52
2018-04-18T02:33:42.473Z,97131.98
2018-04-18T02:36:10.774Z,97137.76
2018-04-18T02:38:39.265Z,97133.91
2018-04-18T02:41:07.562Z,97134.22
2018-04-18T02:43:36.004Z,97128.00
2018-04-18T02:46:04.293Z,97126.84
2018-04-18T02:48:32.621Z,97130.36
2018-04-18T02:51:00.925Z,97129.96
2018-04-18T02:53:29.273Z,97135.09
2018-04-18T02:55:57.576Z,97129.09
2018-04-18T02:58:26.021Z,97133.44
2018-04-18T03:00:54.400Z,97133.42
2018-04-18T03:03:22.710Z,97142.41
2018-04-18T03:05:51.041Z,97136.92
2018-04-18T03:08:19.362Z,97136.22
2018-04-18T03:10:47.721Z,97135.16
2018-04-18T03:13:16.033Z,97132.45
2018-04-18T03:15:44.411Z,97128.82
2018-04-18T03:18:12.737Z,97135.63
2018-04-18T03:20:41.069Z,97133.41
2018-04-18T03:23:09.373Z,97138.75
2018-04-18T03:25:37.697Z,97141.02
2018-04-18T03:28:06.001Z,97134.57
2018-04-18T03:30:34.333Z,97141.09
2018-04-18T03:33:02.642Z,97138.92
2018-04-18T03:35:30.971Z,97138.95
2018-04-18T03:38:00.170Z,97143.45
2018-04-18T03:40:28.497Z,97135.89
2018-04-18T03:42:56.797Z,97133.92
2018-04-18T03:45:25.149Z,97144.94
2018-04-18T03:47:53.453Z,97148.48
2018-04-18T03:50:21.809Z,97148.19
2018-04-18T03:52:50.246Z,97153.87
2018-04-18T03:55:18.540Z,97156.63
2018-04-18T03:57:46.857Z,97155.59
2018-04-18T04:00:15.218Z,97154.20
2018-04-18T04:02:43.525Z,97159.47
2018-04-18T04:05:11.827Z,97163.72
2018-04-18T04:07:40.149Z,97168.70
2018-04-18T04:10:08.454Z,97166.06
2018-04-18T04:12:36.867Z,97171.81
2018-04-18T04:15:05.179Z,97179.80
2018-04-18T04:17:42.182Z,97181.72
2018-04-18T04:20:22.313Z,97183.28
2018-04-18T04:23:02.593Z,97180.48
2018-04-18T04:25:30.885Z,97185.91
2018-04-18T04:27:59.212Z,97181.34
2018-04-18T04:30:27.513Z,97188.97
2018-04-18T04:32:55.848Z,97185.49
2018-04-18T04:35:24.236Z,97190.84
2018-04-18T04:37:52.549Z,97190.26
2018-04-18T04:40:20.853Z,97192.41
2018-04-18T04:42:49.248Z,97200.28
2018-04-18T04:45:17.549Z,97199.06
2018-04-18T04:47:45.948Z,97203.64
2018-04-18T04:50:14.289Z,97201.64
2018-04-18T04:52:42.844Z,97212.63
2018-04-18T04:55:11.248Z,97212.49
2018-04-18T04:57:39.576Z,97205.56
2018-04-18T05:00:07.885Z,97212.05
2018-04-18T05:02:36.245Z,97217.04
2018-04-18T05:05:04.598Z,97217.84
2018-04-18T05:07:32.918Z,97218.75
2018-04-18T05:10:01.322Z,97221.92
2018-04-18T05:12:29.694Z,97224.23
2018-04-18T05:14:58.112Z,97231.61
2018-04-18T05:17:26.450Z,97227.76
2018-04-18T05:19:54.757Z,97228.42
2018-04-18T05:22:23.109Z,97235.28
2018-04-18T05:24:51.471Z,97237.62
2018-04-18T05:27:19.861Z,97238.80
2018-04-18T05:29:48.182Z,97242.45
2018-04-18T05:32:16.497Z,97251.84
2018-04-18T05:34:44.824Z,97247.36
2018-04-18T05:37:13.135Z,97244.18
2018-04-18T05:39:41.572Z,97244.30
2018-04-18T05:42:09.924Z,97240.22
2018-04-18T05:44:38.306Z,97240.44
2018-04-18T05:47:06.723Z,97241.55
2018-04-18T05:49:35.041Z,97247.06
2018-04-18T05:52:03.433Z,97244.33
2018-04-18T05:54:31.816Z,97238.75
2018-04-18T05:57:00.192Z,97238.03
2018-04-18T05:59:28.566Z,97238.23
2018-04-18T06:01:56.992Z,97240.59
2018-04-18T06:04:25.317Z,97247.27
2018-04-18T06:06:53.777Z,97242.17
2018-04-18T06:09:22.209Z,97250.67
2018-04-18T06:11:50.517Z,97241.87
2018-04-18T06:14:18.941Z,97244.32
2018-04-18T06:16:47.251Z,97251.77
2018-04-18T06:19:15.605Z,97253.86
2018-04-18T06:21:43.893Z,97247.22
2018-04-18T06:24:12.249Z,97243.65
2018-04-18T06:26:40.571Z,97244.19
2018-04-18T06:29:08.908Z,97249.70
2018-04-18T06:31:37.292Z,97252.95
2018-04-18T06:34:05.607Z,97257.92
2018-04-18T06:36:33.970Z,97257.67
2018-04-18T06:39:02.349Z,97260.52
2018-04-18T06:41:30.684Z,97263.38
2018-04-18T06:43:59.045Z,97261.02
2018-04-18T06:46:27.388Z,97262.74
2018-04-18T06:48:55.771Z,97260.66
2018-04-18T06:51:24.110Z,97257.00
2018-04-18T06:53:52.835Z,97251.74
2018-04-18T06:56:21.161Z,97255.64
2018-04-18T06:58:49.497Z,97253.91
2018-04-18T07:01:17.829Z,97259.75
2018-04-18T07:03:46.137Z,97256.67
2018-04-18T07:06:14.474Z,97261.61
2018-04-18T07:08:42.787Z,97263.63
2018-04-18T07:11:11.182Z,97255.41
2018-04-18T07:13:39.454Z,97255.09
2018-04-18T07:16:07.785Z,97262.69
2018-04-18T07:18:36.122Z,97262.30
2018-04-18T07:21:04.468Z,97262.70
2018-04-18T07:23:32.833Z,97256.27
2018-04-18T07:26:01.243Z,97265.86
2018-04-18T07:28:29.582Z,97261.14
2018-04-18T07:30:57.973Z,97266.22
2018-04-18T07:33:26.346Z,97262.03
2018-04-18T07:35:54.668Z,97265.42
2018-04-18T07:38:22.997Z,97269.74
2018-04-18T07:40:51.377Z,97270.31
2018-04-18T07:43:19.754Z,97265.66
2018-04-18T07:45:48.069Z,97272.08
2018-04-18T07:48:16.401Z,97274.78
2018-04-18T07:50:44.785Z,97277.52
2018-04-18T07:53:13.121Z,97275.96
2018-04-18T07:55:41.434Z,97272.18
2018-04-18T07:58:09.774Z,97273.34
2018-04-18T08:00:38.093Z,97277.88
2018-04-18T08:03:06.468Z,97271.93
2018-04-18T08:05:34.768Z,97277.39
2018-04-18T08:08:03.125Z,97277.96
2018-04-18T08:10:31.433Z,97284.68
2018-04-18T08:12:59.737Z,97282.36
2018-04-18T08:15:28.220Z,97287.59
2018-04-18T08:17:56.524Z,97283.38
2018-04-18T08:20:24.872Z,97294.47
2018-04-18T08:22:53.173Z,97292.19
2018-04-18T08:25:21.518Z,97290.55
2018-04-18T08:27:57.827Z,97290.48
2018-04-18T08:30:26.205Z,97289.70
2018-04-18T08:32:54.589Z,97291.41
2018-04-18T08:35:22.921Z,97286.41
2018-04-18T08:37:51.232Z,97289.22
2018-04-18T08:40:19.584Z,97290.91
2018-04-18T08:42:48.498Z,97297.41
2018-04-18T08:45:16.845Z,97291.12
2018-04-18T08:47:45.154Z,97290.31
2018-04-18T08:50:13.493Z,97293.77
2018-04-18T08:52:41.794Z,97300.02
2018-04-18T08:55:10.145Z,97285.33
2018-04-18T08:57:38.481Z,97292.86
2018-04-18T09:00:06.801Z,97291.09
2018-04-18T09:02:35.130Z,97282.20
2018-04-18T09:05:03.454Z,97288.00
2018-04-18T09:07:31.775Z,97289.48
2018-04-18T09:10:00.086Z,97293.03
2018-04-18T09:12:28.475Z,97286.76
2018-04-18T09:14:56.777Z,97286.95
2018-04-18T09:17:25.109Z,97284.28
2018-04-18T09:19:53.462Z,97285.04
2018-04-18T09:22:21.801Z,97279.28
2018-04-18T09:24:50.113Z,97281.75
2018-04-18T09:27:18.452Z,97283.16
2018-04-18T09:29:46.768Z,97273.72
2018-04-18T09:32:15.100Z,97278.52
2018-04-18T09:34:43.425Z,97272.28
2018-04-18T09:37:11.766Z,97278.59
2018-04-18T09:39:40.119Z,97282.05
2018-04-18T09:42:08.436Z,97274.27
2018-04-18T09:44:36.776Z,97273.14
2018-04-18T09:47:05.117Z,97270.95
2018-04-18T09:49:33.456Z,97271.75
2018-04-18T09:52:01.772Z,97275.75
2018-04-18T09:54:30.093Z,97277.73
2018-04-18T09:56:58.429Z,97268.05
2018-04-18T09:59:26.769Z,97266.91
2018-04-18T10:01:55.081Z,97269.92
2018-04-18T10:04:29.357Z,97265.27
2018-04-18T10:06:57.670Z,97267.51
2018-04-18T10:09:26.009Z,97274.45
2018-04-18T10:11:54.317Z,97270.80
2018-04-18T10:14:22.661Z,97266.55
2018-04-18T10:16:50.985Z,97268.67
2018-04-18T10:19:19.357Z,97266.20
2018-04-18T10:21:47.661Z,97265.21
2018-04-18T10:24:15.997Z,97262.75
2018-04-18T10:26:44.306Z,97263.50
2018-04-18T10:29:12.656Z,97276.38
2018-04-18T10:31:41.001Z,97275.25
2018-04-18T10:34:09.465Z,97268.44
2018-04-18T10:36:37.776Z,97270.05
2018-04-18T10:39:06.879Z,97269.61
2018-04-18T10:41:35.200Z,97274.56
2018-04-18T10:44:03.521Z,97272.41
2018-04-18T10:46:31.852Z,97271.98
2018-04-18T10:49:00.180Z,97269.88
2018-04-18T10:51:28.510Z,97263.86
2018-04-18T10:53:56.897Z,97270.98
2018-04-18T10:56:25.237Z,97270.49
2018-04-18T10:58:53.658Z,97268.98
2018-04-18T11:01:22.010Z,97261.81
2018-04-18T11:03:50.369Z,97261.59
2018-04-18T11:06:18.717Z,97263.99
2018-04-18T11:08:47.067Z,97264.16
2018-04-18T11:11:15.383Z,97264.75
2018-04-18T11:13:44.461Z,97263.38
2018-04-18T11:16:12.799Z,97261.03
2018-04-18T11:18:41.144Z,97252.39
2018-04-18T11:21:09.441Z,97257.21
2018-04-18T11:23:37.761Z,97254.78
2018-04-18T11:26:06.103Z,97253.52
2018-04-18T11:28:34.465Z,97260.23
2018-04-18T11:31:02.823Z,97253.98
2018-04-18T11:33:31.136Z,97247.84
2018-04-18T11:35:59.468Z,97248.76
2018-04-18T11:38:27.880Z,97251.26
2018-04-18T11:40:56.274Z,97247.17
2018-04-18T11:43:24.577Z,97239.84
2018-04-18T11:45:52.912Z,97236.16
2018-04-18T11:48:21.226Z,97239.17
2018-04-18T11:50:49.707Z,97237.33
2018-04-18T11:53:18.001Z,97239.35
2018-04-18T11:55:46.345Z,97233.72
2018-04-18T11:58:14.694Z,97222.52
2018-04-18T12:00:43.014Z,97240.53
2018-04-18T12:03:11.496Z,97239.42
2018-04-18T12:05:39.793Z,97233.22
2018-04-18T12:08:08.222Z,97240.06
2018-04-18T12:10:36.593Z,97238.02
2018-04-18T12:13:04.936Z,97230.42
2018-04-18T12:15:33.240Z,97228.95
2018-04-18T12:18:01.577Z,97225.72
2018-04-18T12:20:29.902Z,97231.66
2018-04-18T12:22:58.230Z,97225.09
2018-04-18T12:25:26.549Z,97217.41
2018-04-18T12:27:54.929Z,97220.75
2018-04-18T12:30:23.306Z,97221.27
2018-04-18T12:32:51.687Z,97217.95
2018-04-18T12:35:19.998Z,97214.41
2018-04-18T12:37:48.382Z,97211.75
2018-04-18T12:40:16.864Z,97218.43
2018-04-18T12:42:45.300Z,97212.47
2018-04-18T12:45:13.625Z,97202.88
2018-04-18T12:47:41.998Z,97217.21
2018-04-18T12:50:10.375Z,97217.72
2018-04-18T12:52:38.775Z,97202.72
2018-04-18T12:55:07.073Z,97203.34
2018-04-18T12:57:35.536Z,97199.88
2018-04-18T13:00:03.806Z,97203.40
2018-04-18T13:02:32.125Z,97197.72
2018-04-18T13:05:00.464Z,97193.19
2018-04-18T13:07:28.767Z,97194.30
2018-04-18T13:09:57.154Z,97194.28
2018-04-18T13:12:25.495Z,97192.66
2018-04-18T13:14:53.826Z,97192.48
2018-04-18T13:17:22.136Z,97188.02
2018-04-18T13:19:50.540Z,97184.82
2018-04-18T13:22:19.004Z,97183.66
2018-04-18T13:27:10.442Z,97186.28
2018-04-18T13:29:38.903Z,97180.66
2018-04-18T13:32:07.225Z,97186.94
2018-04-18T13:34:35.552Z,97179.59
2018-04-18T13:37:03.876Z,97186.39
2018-04-18T13:39:32.308Z,97171.88
2018-04-18T13:42:00.631Z,97179.80
2018-04-18T13:44:29.027Z,97176.62
2018-04-18T13:46:57.418Z,97175.44
2018-04-18T13:49:25.798Z,97174.20
2018-04-18T13:51:54.172Z,97169.57
2018-04-18T13:54:22.505Z,97164.83
2018-04-18T13:56:50.873Z,97174.13
2018-04-18T13:59:19.261Z,97168.94
2018-04-18T14:01:47.673Z,97176.17
2018-04-18T14:04:16.060Z,97168.50
2018-04-18T14:06:44.432Z,97160.55
2018-04-18T14:09:12.766Z,97170.91
2018-04-18T14:11:41.189Z,97170.11
2018-04-18T14:14:09.557Z,97166.66
2018-04-18T14:16:37.899Z,97171.91
2018-04-18T14:19:06.261Z,97168.92
2018-04-18T14:21:34.593Z,97176.19
2018-04-18T14:24:02.914Z,97161.88
2018-04-18T14:26:31.258Z,97168.13
2018-04-18T14:28:59.559Z,97167.95
2018-04-18T14:31:27.906Z,97163.22
2018-04-18T14:33:56.226Z,97167.97
2018-04-18T14:36:24.570Z,97163.13
2018-04-18T14:38:52.884Z,97164.53
2018-04-18T14:41:21.221Z,97171.94
2018-04-18T14:43:49.557Z,97165.77
2018-04-18T14:46:17.869Z,97169.72
2018-04-18T14:48:46.248Z,97159.09
2018-04-18T14:51:14.670Z,97164.55
2018-04-18T14:53:43.002Z,97154.32
2018-04-18T14:56:11.388Z,97158.90
2018-04-18T14:58:39.758Z,97158.08
2018-04-18T15:01:08.155Z,97154.29
2018-04-18T15:03:36.471Z,97159.69
2018-04-18T15:06:04.797Z,97158.94
2018-04-18T15:08:33.134Z,97155.53
2018-04-18T15:11:01.457Z,97160.09
2018-04-18T15:13:29.792Z,97148.86
2018-04-18T15:15:58.110Z,97145.20
2018-04-18T15:18:26.433Z,97150.61
2018-04-18T15:20:54.805Z,97148.59
2018-04-18T15:23:23.154Z,97147.20
2018-04-18T15:25:51.485Z,97147.02
2018-04-18T15:28:19.913Z,97140.31
2018-04-18T15:30:48.162Z,97148.67
2018-04-18T15:33:16.544Z,97145.41
2018-04-18T15:35:44.882Z,97142.69
2018-04-18T15:38:13.195Z,97146.08
2018-04-18T15:40:41.537Z,97140.34
2018-04-18T15:43:10.003Z,97150.12
2018-04-18T15:45:38.325Z,97144.88
2018-04-18T15:48:06.734Z,97142.03
2018-04-18T15:50:35.093Z,97140.95
2018-04-18T15:53:03.429Z,97140.51
2018-04-18T15:55:31.762Z,97134.93
2018-04-18T15:58:00.172Z,97137.58
2018-04-18T16:00:28.648Z,97132.44
2018-04-18T16:02:56.945Z,97139.42
2018-04-18T16:05:25.296Z,97130.81
2018-04-18T16:07:53.673Z,97131.45
2018-04-18T16:10:22.010Z,97129.97
2018-04-18T16:12:50.444Z,97132.48
2018-04-18T16:15:18.819Z,97131.91
2018-04-18T16:17:47.173Z,97134.13
2018-04-18T16:20:15.506Z,97128.71
2018-04-18T16:22:43.848Z,97131.80
2018-04-18T16:25:12.164Z,97130.89
2018-04-18T16:27:40.566Z,97136.33
2018-04-18T16:33:13.824Z,97134.17
2018-04-18T16:35:42.141Z,97131.20
2018-04-18T16:38:10.521Z,97127.27
2018-04-18T16:40:38.845Z,97127.12
2018-04-18T16:43:07.339Z,97127.17
2018-04-18T16:45:35.728Z,97134.14
2018-04-18T16:48:04.073Z,97133.45
2018-04-18T16:50:32.429Z,97130.52
2018-04-18T16:53:00.781Z,97130.37
2018-04-18T16:55:29.109Z,97133.98
2018-04-18T16:57:57.455Z,97133.71
2018-04-18T17:00:25.793Z,97128.57
2018-04-18T17:02:54.137Z,97125.64
2018-04-18T17:05:22.459Z,97126.61
2018-04-18T17:07:50.914Z,97135.92
2018-04-18T17:10:19.249Z,97133.66
2018-04-18T17:12:47.701Z,97130.58
2018-04-18T17:15:16.040Z,97129.30
2018-04-18T17:17:44.358Z,97128.22
2018-04-18T17:20:12.769Z,97129.16
2018-04-18T17:22:41.281Z,97130.45
2018-04-18T17:25:09.653Z,97133.14
2018-04-18T17:27:37.953Z,97144.19
2018-04-18T17:30:06.381Z,97138.59
2018-04-18T17:32:34.769Z,97136.38
2018-04-18T17:35:03.104Z,97142.22
2018-04-18T17:37:31.448Z,97140.96
2018-04-18T17:39:59.808Z,97141.05
2018-04-18T17:42:28.140Z,97136.09
2018-04-18T17:44:56.500Z,97139.03
2018-04-18T17:47:24.923Z,97137.53
2018-04-18T17:49:53.313Z,97133.66
2018-04-18T17:52:21.680Z,97132.63
2018-04-18T17:54:50.095Z,97132.37
2018-04-18T17:57:18.396Z,97128.39
2018-04-18T17:59:46.820Z,97130.27
2018-04-18T18:02:15.191Z,97121.73
2018-04-18T18:04:43.586Z,97124.48
2018-04-18T18:07:11.917Z,97125.61
2018-04-18T18:09:40.260Z,97127.27
2018-04-18T18:12:08.612Z,97120.98
2018-04-18T18:14:36.960Z,97124.45
2018-04-18T18:17:05.305Z,97127.09
2018-04-18T18:19:33.642Z,97124.89
2018-04-18T18:22:01.964Z,97130.39
2018-04-18T18:24:30.336Z,97137.15
2018-04-18T18:26:58.659Z,97137.23
2018-04-18T18:29:27.050Z,97134.00
2018-04-18T18:31:55.401Z,97134.99
2018-04-18T18:34:23.770Z,97144.17
2018-04-18T18:36:52.171Z,97144.93
2018-04-18T18:39:20.501Z,97146.84
2018-04-18T18:41:48.889Z,97152.17
2018-04-18T18:44:17.208Z,97157.44
2018-04-18T18:46:45.581Z,97148.39
2018-04-18T18:49:13.980Z,97159.78
2018-04-18T18:51:42.337Z,97158.63
2018-04-18T18:54:10.673Z,97155.20
2018-04-18T18:56:39.013Z,97163.17
2018-04-18T18:59:07.336Z,97170.41
2018-04-18T19:01:35.748Z,97165.30
2018-04-18T19:04:04.089Z,97166.70
2018-04-18T19:06:32.513Z,97165.32
2018-04-18T19:09:00.827Z,97172.14
2018-04-18T19:11:29.265Z,97164.02
2018-04-18T19:13:57.648Z,97169.75
2018-04-18T19:16:26.000Z,97174.95
2018-04-18T19:18:54.390Z,97173.97
2018-04-18T19:21:22.790Z,97176.53
2018-04-18T19:23:51.163Z,97169.22
2018-04-18T19:26:19.542Z,97169.80
2018-04-18T19:28:47.914Z,97172.60
2018-04-18T19:31:16.245Z,97168.81
2018-04-18T19:33:44.601Z,97172.66
2018-04-18T19:36:12.909Z,97173.28
2018-04-18T19:38:41.256Z,97181.63
2018-04-18T19:41:09.587Z,97176.58
2018-04-18T19:43:37.961Z,97173.17
2018-04-18T19:46:06.289Z,97179.92
2018-04-18T19:48:34.629Z,97177.25
2018-04-18T19:51:02.957Z,97179.02
2018-04-18T19:53:31.306Z,97172.87
2018-04-18T19:55:59.647Z,97170.25
2018-04-18T19:58:27.990Z,97170.86
2018-04-18T20:00:56.309Z,97171.55
2018-04-18T20:03:24.649Z,97168.54
2018-04-18T20:05:53.124Z,97165.78
2018-04-18T20:08:21.470Z,97164.30
2018-04-18T20:10:49.794Z,97160.78
2018-04-18T20:13:18.186Z,97159.84
2018-04-18T20:15:46.509Z,97158.19
2018-04-18T20:18:14.824Z,97159.16
2018-04-18T20:20:43.210Z,97154.05
2018-04-18T20:23:11.633Z,97154.20
2018-04-18T20:25:39.991Z,97151.27
2018-04-18T20:28:08.325Z,97153.73
2018-04-18T20:30:36.730Z,97151.74
2018-04-18T20:33:05.136Z,97159.67
2018-04-18T20:35:33.481Z,97156.02
2018-04-18T20:38:01.852Z,97150.82
2018-04-18T20:40:30.191Z,97156.21
2018-04-18T20:42:58.514Z,97153.05
2018-04-18T20:45:26.925Z,97160.48
2018-04-18T20:47:55.237Z,97157.56
2018-04-18T20:50:23.585Z,97153.48
2018-04-18T20:52:51.929Z,97148.57
2018-04-18T20:55:20.285Z,97158.10
2018-04-18T20:57:48.609Z,97154.94
2018-04-18T21:00:16.996Z,97157.95
2018-04-18T21:02:45.316Z,97161.62
2018-04-18T21:05:13.654Z,97160.61
2018-04-18T21:07:41.970Z,97156.57
2018-04-18T21:10:10.313Z,97157.72
2018-04-18T21:12:38.686Z,97160.80
2018-04-18T21:15:07.005Z,97164.71
2018-04-18T21:17:35.394Z,97160.36
2018-04-18T21:20:03.718Z,97162.16
2018-04-18T21:22:32.061Z,97159.99
2018-04-18T21:25:00.365Z,97166.13
2018-04-18T21:27:28.793Z,97168.39
2018-04-18T21:29:57.090Z,97160.28
2018-04-18T21:32:25.454Z,97167.62
2018-04-18T21:34:53.757Z,97163.16
2018-04-18T21:37:22.113Z,97162.42
2018-04-18T21:39:50.451Z,97165.37
2018-04-18T21:42:18.789Z,97160.38
2018-04-18T21:44:47.109Z,97168.88
2018-04-18T21:47:15.488Z,97167.67
2018-04-18T21:49:43.800Z,97166.00
2018-04-18T21:52:12.130Z,97163.16
2018-04-18T21:54:40.502Z,97167.32
2018-04-18T21:57:08.829Z,97163.98
2018-04-18T21:59:37.206Z,97167.13
2018-04-18T22:02:05.550Z,97168.66
2018-04-18T22:04:33.901Z,97166.48
2018-04-18T22:07:02.289Z,97164.83
2018-04-18T22:09:30.625Z,97161.06
2018-04-18T22:11:58.944Z,97158.44
2018-04-18T22:14:27.325Z,97153.88
2018-04-18T22:16:55.759Z,97151.53
2018-04-18T22:19:24.097Z,97159.40
2018-04-18T22:21:52.430Z,97150.11
2018-04-18T22:24:20.769Z,97156.77
2018-04-18T22:26:49.113Z,97152.09
2018-04-18T22:29:17.515Z,97153.87
2018-04-18T22:31:45.860Z,97156.20
2018-04-18T22:34:14.236Z,97159.40
2018-04-18T22:36:42.563Z,97153.51
2018-04-18T22:39:10.906Z,97158.86
2018-04-18T22:41:39.225Z,97155.34
2018-04-18T22:44:07.562Z,97159.09
2018-04-18T22:46:35.877Z,97159.84
2018-04-18T22:49:04.306Z,97152.53
2018-04-18T22:51:32.625Z,97163.48
2018-04-18T22:54:00.966Z,97165.95
2018-04-18T22:56:29.338Z,97161.20
2018-04-18T22:58:57.699Z,97158.58
2018-04-18T23:01:26.022Z,97158.37
2018-04-18T23:03:54.417Z,97150.34
2018-04-18T23:06:22.753Z,97152.28
2018-04-18T23:08:51.078Z,97145.55
2018-04-18T23:11:19.413Z,97146.49
2018-04-18T23:13:47.790Z,97151.69
2018-04-18T23:16:16.122Z,97149.59
2018-04-18T23:18:44.439Z,97150.92
2018-04-18T23:21:12.785Z,97141.63
2018-04-18T23:23:41.198Z,97137.01
2018-04-18T23:26:09.541Z,97137.33
2018-04-18T23:28:37.869Z,97128.05
2018-04-18T23:31:06.232Z,97131.61
2018-04-18T23:33:34.540Z,97131.50
2018-04-18T23:36:02.888Z,97129.18
2018-04-18T23:38:31.213Z,97128.26
2018-04-18T23:40:59.541Z,97125.41
2018-04-18T23:43:27.913Z,97121.67
2018-04-18T23:45:56.241Z,97118.20
2018-04-18T23:48:24.581Z,97117.50
2018-04-18T23:50:52.913Z,97117.30
2018-04-18T23:53:21.337Z,97116.94
2018-04-18T23:55:49.655Z,97113.73
2018-04-18T23:58:18.001Z,97122.32
